首页
METAR-TAF:

METAR-TAF

机场 :

Pope Air Force Base

費耶特維爾 / Pope, 北卡罗来纳州, 美国

纬度: 35-10N, 经度: 079-02W, 海拔: 61米

当前天气观测

该预报发布于21分钟前的13:56 UTC
风速4节,风向东转东北
温度 24°C
湿度 89%
气压 1018 hPa
能見度: 16.1公里
阴天层高于1300英尺

METAR: KPOB 201356Z AUTO 06004KT 10SM OVC013 24/22 A3007 RMK AO2 SLP184 T02410216 $

时间: 10:17 (14:17 UTC)

预报

该预报发布于1小时和32分钟前的12:45 UTC
预报有效从20日的 12点(UTC)到 21日的 15点(UTC)
风速6节,风向南转西南
能见度10公里或以上
多云层高于1200英尺
多云层高于12000英尺
成为
从 20日的 14点(UTC)到 20日的 15点(UTC)
风速9节,风向南转西南
能见度10公里或以上
散云层高于3000英尺
多云层高于6000英尺
短暂存在
从 20日的 20点(UTC)到 21日的 02点(UTC)
风速10节,风向多变,有时为25节阵风
能見度: 6000
多云层高于3000英尺, 积雨云.
雷暴, 小雨
成为
从 21日的 08点(UTC)到 21日的 09点(UTC)
风速6节,风向多变
能見度: 8000
多云层高于2000英尺
轻雾
成为
从 21日的 14点(UTC)到 21日的 15点(UTC)
风速12节,风向西南,有时为18节阵风
能見度: 9000
多云层高于2000英尺
小阵雨

TAF: KPOB 201245Z 2012/2115 20006KT 9999 BKN012 BKN120 QNH2998INS BECMG 2014/2015 20009KT 9999 SCT030 BKN060 QNH2998INS TEMPO 2020/2102 VRB10G25KT 6000 -TSRA BKN030CB BECMG 2108/2109 VRB06KT 8000 BR BKN020 QNH3002INS BECMG 2114/2115 23012G18KT 9000 -SHRA BKN020 QNH3004INS TX31/2020Z TN23/2109Z

超过4000个机场的气象观测和天气预报(METAR&TAF报告)。

可查询的气象台以黄色和红色小点在地图上表示。

将鼠标移到小点上方,可查看气象台名称。

然后点击查看天气观测和预报。

如需切换地图:点击带黑十字的绿色按钮放大地图;点击带横线的绿色按钮缩小地图;或者点击绿色箭头查看邻近地区的地图。


METAR-TAF: